Time;durP1;ratioP1;P1;durP2;ratioP2;P2;SDS_P1;SDS_P2;PMS_P1;PMS_P2;Temp;Humidity;BMP_temperature;BMP_pressure;BME280_temperature;BME280_humidity;BME280_pressure;Samples;Min_cycle;Max_cycle;Signal;HPM_P1;HPM_P2
2023/05/23 00:02:14;;;;;;;;;;;17.50;99.90;;;;;;5005202;28;20325;-94
2023/05/23 00:04:48;;;;;;;;;;;17.40;99.90;;;;;;4990885;28;20354;-93
2023/05/23 00:07:15;;;;;;;;;;;17.40;99.90;;;;;;4995738;28;20363;-95
2023/05/23 00:09:41;;;;;;;;;;;17.40;99.90;;;;;;5006213;28;19961;-95
2023/05/23 00:12:16;;;;;;;;;;;17.40;99.90;;;;;;5010995;28;19913;-92
2023/05/23 00:14:45;;;;;;;;;;;17.40;99.90;;;;;;4994863;28;19944;-93
2023/05/23 00:17:11;;;;;;;;;;;17.30;99.90;;;;;;5013129;28;19972;-92
2023/05/23 00:19:40;;;;;;;;;;;17.30;99.90;;;;;;5017528;28;19914;-95
2023/05/23 00:22:05;;;;;;;;;;;17.30;99.90;;;;;;4994564;28;19914;-95
2023/05/23 00:24:34;;;;;;;;;;;17.30;99.90;;;;;;5015683;28;20298;-95
2023/05/23 00:27:08;;;;;;;;;;;17.20;99.90;;;;;;4993527;28;19910;-95
2023/05/23 00:29:40;;;;;;;;;;;17.20;99.90;;;;;;5008795;28;19961;-95
2023/05/23 00:32:15;;;;;;;;;;;17.20;99.90;;;;;;5016734;28;19956;-95
2023/05/23 00:34:57;;;;;;;;;;;17.20;99.90;;;;;;5015017;28;19909;-94
2023/05/23 00:37:42;;;;;;;;;;;17.10;99.90;;;;;;4994074;28;19910;-95
2023/05/23 00:40:12;;;;;;;;;;;17.10;99.90;;;;;;5005768;28;19917;-95
2023/05/23 00:42:46;;;;;;;;;;;17.10;99.90;;;;;;5014815;28;20080;-95
2023/05/23 00:45:25;;;;;;;;;;;17.00;99.90;;;;;;4999002;28;20647;-95
2023/05/23 00:47:52;;;;;;;;;;;17.00;99.90;;;;;;5003220;28;19913;-95
2023/05/23 00:50:22;;;;;;;;;;;17.00;99.90;;;;;;5000491;28;19996;-95
2023/05/23 00:52:59;;;;;;;;;;;17.00;99.90;;;;;;5010781;28;19952;-94
2023/05/23 00:55:25;;;;;;;;;;;17.00;99.90;;;;;;4993274;28;19912;-95
2023/05/23 00:57:56;;;;;;;;;;;16.90;99.90;;;;;;4998213;28;19937;-95
2023/05/23 01:00:31;;;;;;;;;;;16.90;99.90;;;;;;5007148;28;19996;-95
2023/05/23 01:03:07;;;;;;;;;;;16.90;99.90;;;;;;4998947;28;20486;-95
2023/05/23 01:05:40;;;;;;;;;;;16.90;99.90;;;;;;5002863;28;19949;-95
2023/05/23 01:08:07;;;;;;;;;;;16.80;99.90;;;;;;5012186;28;19910;-95
2023/05/23 01:10:38;;;;;;;;;;;16.80;99.90;;;;;;4997653;28;19913;-95
2023/05/23 01:13:22;;;;;;;;;;;16.80;99.90;;;;;;4999528;28;19916;-95
2023/05/23 01:19:13;;;;;;;;;;;16.80;99.90;;;;;;5000066;28;19919;-95
2023/05/23 01:21:40;;;;;;;;;;;16.70;99.90;;;;;;4994151;28;19918;-95
2023/05/23 01:24:24;;;;;;;;;;;16.70;99.90;;;;;;5011870;28;19988;-95
2023/05/23 01:27:01;;;;;;;;;;;16.70;99.90;;;;;;4995359;28;19905;-95
2023/05/23 01:29:49;;;;;;;;;;;16.70;99.90;;;;;;4991163;28;19909;-96
2023/05/23 01:32:22;;;;;;;;;;;16.70;99.90;;;;;;4998203;28;19965;-94
2023/05/23 01:34:52;;;;;;;;;;;16.60;99.90;;;;;;4996469;28;20001;-95
2023/05/23 01:37:19;;;;;;;;;;;16.60;99.90;;;;;;5000764;28;19975;-94
2023/05/23 01:42:48;;;;;;;;;;;16.50;99.90;;;;;;4996503;28;20393;-94
2023/05/23 01:48:17;;;;;;;;;;;16.50;99.90;;;;;;4990638;28;19911;-96
2023/05/23 01:51:19;;;;;;;;;;;16.50;99.90;;;;;;5001948;28;20282;-94
2023/05/23 01:56:49;;;;;;;;;;;16.40;99.90;;;;;;4995757;28;20008;-95
2023/05/23 02:02:40;;;;;;;;;;;16.30;99.90;;;;;;4993631;28;19967;-95
2023/05/23 02:05:14;;;;;;;;;;;16.30;99.90;;;;;;5005942;28;19914;-95
2023/05/23 02:13:45;;;;;;;;;;;16.20;99.90;;;;;;4999446;28;20036;-94
2023/05/23 02:25:21;;;;;;;;;;;16.10;99.90;;;;;;4993239;28;19928;-95
2023/05/23 02:31:16;;;;;;;;;;;16.00;99.90;;;;;;4991326;28;19911;-94
2023/05/23 02:37:16;;;;;;;;;;;16.00;99.90;;;;;;4986682;28;19964;-95
2023/05/23 02:39:42;;;;;;;;;;;16.00;99.90;;;;;;5012751;28;20374;-95
2023/05/23 02:42:36;;;;;;;;;;;16.00;99.90;;;;;;5014506;28;19914;-95
2023/05/23 02:48:05;;;;;;;;;;;16.00;99.90;;;;;;5000885;28;19976;-93
2023/05/23 02:53:34;;;;;;;;;;;15.90;99.90;;;;;;4997812;28;20414;-93
2023/05/23 02:59:03;;;;;;;;;;;15.90;99.90;;;;;;5003563;28;19977;-93
2023/05/23 03:07:35;;;;;;;;;;;15.80;99.90;;;;;;4991557;28;19921;-95
2023/05/23 03:13:04;;;;;;;;;;;15.80;99.90;;;;;;5003762;28;19913;-93
2023/05/23 03:18:33;;;;;;;;;;;15.80;99.90;;;;;;5018713;28;19925;-91
2023/05/23 03:24:02;;;;;;;;;;;15.80;99.90;;;;;;5003280;28;19920;-94
2023/05/23 03:29:31;;;;;;;;;;;15.80;99.90;;;;;;4994794;28;19933;-95
2023/05/23 03:31:57;;;;;;;;;;;15.90;99.90;;;;;;5014615;28;20639;-94
2023/05/23 03:34:22;;;;;;;;;;;15.90;99.90;;;;;;5020110;28;19909;-95
2023/05/23 03:39:52;;;;;;;;;;;16.00;99.90;;;;;;5000873;28;19932;-94
2023/05/23 03:48:24;;;;;;;;;;;16.00;99.90;;;;;;4997346;28;20345;-94
2023/05/23 03:53:52;;;;;;;;;;;16.10;99.90;;;;;;5006831;28;19912;-93
2023/05/23 03:59:21;;;;;;;;;;;16.00;99.90;;;;;;5004800;28;20025;-93
2023/05/23 04:01:48;;;;;;;;;;;16.00;99.90;;;;;;4996513;28;19996;-94
2023/05/23 04:04:13;;;;;;;;;;;16.10;99.90;;;;;;5001298;28;19956;-95
2023/05/23 04:06:40;;;;;;;;;;;16.20;99.90;;;;;;4996884;28;19905;-95
2023/05/23 04:09:13;;;;;;;;;;;16.30;99.90;;;;;;5012240;28;19913;-95
2023/05/23 04:11:42;;;;;;;;;;;16.40;99.90;;;;;;4994628;28;19933;-95
2023/05/23 04:14:11;;;;;;;;;;;16.40;99.90;;;;;;5010816;28;19945;-95
2023/05/23 04:19:39;;;;;;;;;;;16.70;99.90;;;;;;5003081;28;19968;-94
2023/05/23 04:22:06;;;;;;;;;;;16.80;99.90;;;;;;5002417;28;19980;-94
2023/05/23 04:27:38;;;;;;;;;;;16.70;99.90;;;;;;4999888;28;19928;-70
2023/05/23 04:30:07;;;;;;;;;;;16.70;99.90;;;;;;4984359;28;20376;-71
2023/05/23 04:32:33;;;;;;;;;;;16.70;99.90;;;;;;4986371;28;19998;-71
2023/05/23 04:35:01;;;;;;;;;;;16.90;99.90;;;;;;4986721;28;20067;-70
2023/05/23 04:37:26;;;;;;;;;;;17.10;99.90;;;;;;4984533;28;19909;-72
2023/05/23 04:39:55;;;;;;;;;;;17.30;99.90;;;;;;4982927;28;20003;-80
2023/05/23 04:42:25;;;;;;;;;;;17.30;99.90;;;;;;4983545;28;20040;-81
2023/05/23 04:44:52;;;;;;;;;;;17.30;99.90;;;;;;4998723;28;21156;-81
2023/05/23 04:47:18;;;;;;;;;;;17.40;99.90;;;;;;4986854;28;19906;-79
2023/05/23 04:49:46;;;;;;;;;;;17.40;99.90;;;;;;4983359;28;19913;-79
2023/05/23 04:52:12;;;;;;;;;;;17.40;99.90;;;;;;4987023;28;19945;-79
2023/05/23 04:54:45;;;;;;;;;;;17.60;99.90;;;;;;4987981;28;20362;-79
2023/05/23 04:57:11;;;;;;;;;;;17.70;99.90;;;;;;4977472;28;19914;-81
2023/05/23 04:59:39;;;;;;;;;;;17.80;99.90;;;;;;4980491;28;19925;-80
2023/05/23 05:02:05;;;;;;;;;;;17.80;99.90;;;;;;4989406;28;19944;-80
2023/05/23 05:04:32;;;;;;;;;;;17.80;99.90;;;;;;4979507;28;19936;-80
2023/05/23 05:06:58;;;;;;;;;;;18.00;99.90;;;;;;4979566;28;19960;-79
2023/05/23 05:09:24;;;;;;;;;;;18.10;99.90;;;;;;4989425;28;19913;-78
2023/05/23 05:11:50;;;;;;;;;;;18.20;99.90;;;;;;4997018;28;19916;-79
2023/05/23 05:14:15;;;;;;;;;;;18.30;99.90;;;;;;4983831;28;19906;-79
2023/05/23 05:16:41;;;;;;;;;;;18.30;99.90;;;;;;4986171;28;19906;-79
2023/05/23 05:19:08;;;;;;;;;;;18.50;99.90;;;;;;4980092;28;19920;-78
2023/05/23 05:21:33;;;;;;;;;;;18.60;99.90;;;;;;4997375;28;20726;-79
2023/05/23 05:23:59;;;;;;;;;;;18.60;99.90;;;;;;4984795;28;19909;-72
2023/05/23 05:26:25;;;;;;;;;;;18.60;99.90;;;;;;4981526;28;19948;-72
2023/05/23 05:28:51;;;;;;;;;;;18.70;99.90;;;;;;4987281;28;19913;-72
2023/05/23 05:31:17;;;;;;;;;;;18.90;99.90;;;;;;4982626;28;19914;-71
2023/05/23 05:33:44;;;;;;;;;;;19.10;99.90;;;;;;4986542;28;19915;-72
2023/05/23 05:36:10;;;;;;;;;;;19.30;99.90;;;;;;4986752;28;20270;-72
2023/05/23 05:38:35;;;;;;;;;;;19.40;99.90;;;;;;4984838;28;19913;-78
2023/05/23 05:41:01;;;;;;;;;;;19.40;99.90;;;;;;4966024;28;19918;-78
2023/05/23 05:43:28;;;;;;;;;;;19.60;99.90;;;;;;4983247;28;19925;-77
2023/05/23 05:45:54;;;;;;;;;;;19.70;99.90;;;;;;4985403;28;19919;-78
2023/05/23 05:48:23;;;;;;;;;;;20.00;99.90;;;;;;4987157;28;19941;-77
2023/05/23 05:50:48;;;;;;;;;;;20.40;99.90;;;;;;4984308;28;19930;-78
2023/05/23 05:53:14;;;;;;;;;;;21.00;99.90;;;;;;4985985;28;20359;-73
2023/05/23 05:55:39;;;;;;;;;;;21.40;99.90;;;;;;4989363;28;20525;-73
2023/05/23 05:58:05;;;;;;;;;;;21.80;99.90;;;;;;4984778;28;20006;-73
2023/05/23 06:00:31;;;;;;;;;;;22.30;99.90;;;;;;4985008;28;19906;-73
2023/05/23 06:02:57;;;;;;;;;;;22.50;99.90;;;;;;4992686;28;19910;-73
2023/05/23 06:05:23;;;;;;;;;;;23.10;99.90;;;;;;5001160;28;19920;-74
2023/05/23 06:07:50;;;;;;;;;;;23.40;99.90;;;;;;4983034;28;19910;-72
2023/05/23 06:10:15;;;;;;;;;;;23.90;99.90;;;;;;4983302;28;19912;-73
2023/05/23 06:12:41;;;;;;;;;;;25.10;99.90;;;;;;4985379;28;20526;-72
2023/05/23 06:15:08;;;;;;;;;;;26.60;99.90;;;;;;4983310;28;20397;-72
2023/05/23 06:17:34;;;;;;;;;;;26.40;99.30;;;;;;4984682;28;20001;-73
2023/05/23 06:20:00;;;;;;;;;;;26.40;98.80;;;;;;4985167;28;20020;-71
2023/05/23 06:22:25;;;;;;;;;;;27.80;97.70;;;;;;4994730;28;19944;-71
2023/05/23 06:24:51;;;;;;;;;;;27.40;96.40;;;;;;4985080;28;19980;-73
2023/05/23 06:27:16;;;;;;;;;;;28.00;96.20;;;;;;4984443;28;19905;-71
2023/05/23 06:29:42;;;;;;;;;;;28.70;94.70;;;;;;4987950;28;20338;-73
2023/05/23 06:32:07;;;;;;;;;;;28.70;93.70;;;;;;4985863;28;19956;-72
2023/05/23 06:34:33;;;;;;;;;;;29.00;93.60;;;;;;4983263;28;19914;-73
2023/05/23 06:36:58;;;;;;;;;;;28.60;93.00;;;;;;4986814;28;19949;-73
2023/05/23 06:39:24;;;;;;;;;;;28.50;93.70;;;;;;4989083;28;19909;-71
2023/05/23 06:41:50;;;;;;;;;;;29.60;91.60;;;;;;4993185;28;19906;-70
2023/05/23 06:44:16;;;;;;;;;;;30.80;89.70;;;;;;4988025;28;19909;-71
2023/05/23 06:46:46;;;;;;;;;;;30.40;87.70;;;;;;4985666;28;20540;-71
2023/05/23 06:49:12;;;;;;;;;;;30.40;86.10;;;;;;4982920;28;20004;-71
2023/05/23 06:51:38;;;;;;;;;;;29.60;85.70;;;;;;4984653;28;20016;-71
2023/05/23 06:54:04;;;;;;;;;;;30.50;84.60;;;;;;4980503;28;19972;-71
2023/05/23 06:56:30;;;;;;;;;;;32.90;76.00;;;;;;4996705;28;19913;-71
2023/05/23 06:58:55;;;;;;;;;;;34.80;70.20;;;;;;4981488;28;19913;-71
2023/05/23 07:01:21;;;;;;;;;;;36.20;64.90;;;;;;4987141;28;19921;-71
2023/05/23 07:03:46;;;;;;;;;;;35.90;62.20;;;;;;4983484;28;19917;-71
2023/05/23 07:06:12;;;;;;;;;;;35.70;62.10;;;;;;4989974;28;20392;-71
2023/05/23 07:08:37;;;;;;;;;;;36.50;60.60;;;;;;4983751;28;20466;-71
2023/05/23 07:11:03;;;;;;;;;;;37.80;59.00;;;;;;4986412;28;19937;-71
2023/05/23 07:13:29;;;;;;;;;;;38.10;57.50;;;;;;4992261;28;19969;-71
2023/05/23 07:15:54;;;;;;;;;;;39.00;55.90;;;;;;4985934;28;19909;-71
2023/05/23 07:18:20;;;;;;;;;;;39.70;53.80;;;;;;4985380;28;19920;-71
2023/05/23 07:20:45;;;;;;;;;;;40.20;52.50;;;;;;4982964;28;20255;-71
2023/05/23 07:23:11;;;;;;;;;;;40.70;50.70;;;;;;5005790;28;20265;-71
2023/05/23 07:25:39;;;;;;;;;;;40.40;50.90;;;;;;4988546;28;20559;-69
2023/05/23 07:28:04;;;;;;;;;;;40.60;50.50;;;;;;4986911;28;20362;-74
2023/05/23 07:30:30;;;;;;;;;;;39.90;50.60;;;;;;4981718;28;19916;-71
2023/05/23 07:32:56;;;;;;;;;;;40.20;50.30;;;;;;4986904;28;19971;-70
2023/05/23 07:35:24;;;;;;;;;;;39.80;50.60;;;;;;4987586;28;20326;-69
2023/05/23 07:37:53;;;;;;;;;;;39.70;49.80;;;;;;4987148;28;19914;-72
2023/05/23 07:40:20;;;;;;;;;;;40.30;49.40;;;;;;4987181;28;19985;-71
2023/05/23 07:42:45;;;;;;;;;;;40.70;49.00;;;;;;4989177;28;19917;-71
2023/05/23 07:45:11;;;;;;;;;;;40.90;48.60;;;;;;4990552;28;19914;-71
2023/05/23 07:47:36;;;;;;;;;;;40.70;48.50;;;;;;4981939;28;20813;-71
2023/05/23 07:50:02;;;;;;;;;;;40.90;48.60;;;;;;4990345;28;20725;-71
2023/05/23 07:52:29;;;;;;;;;;;41.00;48.00;;;;;;4983046;28;19992;-70
2023/05/23 07:54:55;;;;;;;;;;;40.70;48.60;;;;;;4992310;28;19944;-69
2023/05/23 07:57:20;;;;;;;;;;;41.50;48.20;;;;;;5002813;28;20015;-69
2023/05/23 07:59:46;;;;;;;;;;;42.00;47.40;;;;;;4989296;28;20350;-69
2023/05/23 08:02:11;;;;;;;;;;;42.40;46.90;;;;;;4985220;28;19909;-69
2023/05/23 08:04:39;;;;;;;;;;;42.20;46.40;;;;;;4995702;28;20350;-71
2023/05/23 08:07:04;;;;;;;;;;;41.00;47.70;;;;;;4984630;28;19993;-71
2023/05/23 08:09:30;;;;;;;;;;;39.50;50.00;;;;;;4984645;28;20004;-72
2023/05/23 08:11:55;;;;;;;;;;;39.60;49.30;;;;;;4987592;28;19905;-69
2023/05/23 08:14:21;;;;;;;;;;;39.90;49.10;;;;;;4987945;28;20328;-69
2023/05/23 08:16:47;;;;;;;;;;;40.80;48.80;;;;;;4987723;28;20494;-69
2023/05/23 08:19:13;;;;;;;;;;;41.60;47.60;;;;;;4985751;28;19913;-67
2023/05/23 08:21:39;;;;;;;;;;;41.80;47.50;;;;;;4987573;28;19976;-67
2023/05/23 08:24:04;;;;;;;;;;;42.20;47.30;;;;;;5001058;28;19913;-67
2023/05/23 08:26:33;;;;;;;;;;;42.40;47.30;;;;;;5002168;28;20007;-69
2023/05/23 08:29:01;;;;;;;;;;;43.00;46.30;;;;;;4985473;28;19909;-67
2023/05/23 08:31:29;;;;;;;;;;;42.90;45.90;;;;;;4993273;28;19952;-69
2023/05/23 08:33:55;;;;;;;;;;;41.20;46.60;;;;;;4983834;28;19948;-68
2023/05/23 08:36:20;;;;;;;;;;;39.60;48.40;;;;;;4991419;28;19956;-68
2023/05/23 08:38:46;;;;;;;;;;;39.70;48.80;;;;;;4984922;28;19920;-68
2023/05/23 08:41:19;;;;;;;;;;;41.00;48.00;;;;;;4986977;28;20259;-68
2023/05/23 08:43:44;;;;;;;;;;;41.30;46.70;;;;;;4983622;28;20292;-68
2023/05/23 08:46:10;;;;;;;;;;;42.30;46.20;;;;;;4994016;28;19916;-68
2023/05/23 08:48:37;;;;;;;;;;;42.60;46.40;;;;;;4986006;28;19910;-68
2023/05/23 08:51:02;;;;;;;;;;;42.80;45.70;;;;;;4985058;28;19991;-68
2023/05/23 08:53:29;;;;;;;;;;;42.60;45.70;;;;;;4990356;28;20543;-68
2023/05/23 08:55:57;;;;;;;;;;;42.20;45.90;;;;;;4984989;28;19946;-68
2023/05/23 08:58:28;;;;;;;;;;;42.10;46.10;;;;;;4985186;28;19928;-68
2023/05/23 09:00:54;;;;;;;;;;;41.30;46.20;;;;;;4984395;28;19913;-68
2023/05/23 09:03:21;;;;;;;;;;;41.90;46.70;;;;;;4989761;28;19933;-68
2023/05/23 09:05:47;;;;;;;;;;;42.20;46.70;;;;;;4986624;28;20374;-68
2023/05/23 09:08:14;;;;;;;;;;;42.70;46.20;;;;;;4987838;28;21265;-68
2023/05/23 09:10:40;;;;;;;;;;;42.30;46.30;;;;;;4986358;28;20367;-68
2023/05/23 09:13:06;;;;;;;;;;;41.00;46.70;;;;;;4986194;28;19913;-68
2023/05/23 09:15:31;;;;;;;;;;;39.80;47.50;;;;;;4988698;28;19905;-68
2023/05/23 09:18:03;;;;;;;;;;;38.70;48.20;;;;;;4983352;28;20336;-68
2023/05/23 09:20:29;;;;;;;;;;;37.90;49.60;;;;;;4987292;28;19913;-68
2023/05/23 09:22:55;;;;;;;;;;;36.70;49.70;;;;;;4989286;28;19910;-68
2023/05/23 09:25:20;;;;;;;;;;;36.60;50.70;;;;;;4987645;28;19916;-68
2023/05/23 09:27:46;;;;;;;;;;;37.20;50.80;;;;;;4982985;28;19913;-69
2023/05/23 09:30:12;;;;;;;;;;;37.50;50.60;;;;;;4988842;28;19909;-68
2023/05/23 09:32:37;;;;;;;;;;;38.30;49.90;;;;;;4987362;28;19917;-69
2023/05/23 09:35:04;;;;;;;;;;;38.30;49.30;;;;;;4988221;28;19909;-68
2023/05/23 09:37:38;;;;;;;;;;;39.00;48.90;;;;;;4987671;28;20442;-69
2023/05/23 09:40:08;;;;;;;;;;;39.50;48.20;;;;;;4984299;28;19919;-68
2023/05/23 09:42:34;;;;;;;;;;;40.10;47.60;;;;;;4983714;28;19917;-68
2023/05/23 09:45:00;;;;;;;;;;;40.20;47.20;;;;;;4981139;28;19968;-69
2023/05/23 09:47:26;;;;;;;;;;;40.60;47.30;;;;;;4986639;28;19909;-68
2023/05/23 09:49:51;;;;;;;;;;;40.50;47.40;;;;;;5000156;28;19945;-68
2023/05/23 09:52:19;;;;;;;;;;;40.10;47.60;;;;;;4988879;28;20025;-69
2023/05/23 09:54:45;;;;;;;;;;;39.90;48.00;;;;;;4998160;28;19909;-68
2023/05/23 09:57:12;;;;;;;;;;;40.10;47.50;;;;;;4998164;28;19914;-68
2023/05/23 09:59:39;;;;;;;;;;;40.10;47.90;;;;;;4985729;28;19918;-68
2023/05/23 10:02:06;;;;;;;;;;;40.30;47.60;;;;;;4984248;28;19914;-68
2023/05/23 10:04:33;;;;;;;;;;;40.20;47.70;;;;;;4983140;28;19956;-68
2023/05/23 10:07:03;;;;;;;;;;;40.20;47.30;;;;;;4979521;28;19910;-68
2023/05/23 10:09:32;;;;;;;;;;;40.40;46.80;;;;;;4983022;28;19925;-66
2023/05/23 10:12:16;;;;;;;;;;;41.10;46.80;;;;;;4979707;28;19910;-68
2023/05/23 10:14:44;;;;;;;;;;;41.30;46.10;;;;;;4987285;28;19960;-68
2023/05/23 10:17:21;;;;;;;;;;;41.20;47.60;;;;;;4979857;28;20019;-68
2023/05/23 10:19:57;;;;;;;;;;;41.40;47.00;;;;;;4983950;28;20012;-68
2023/05/23 10:22:23;;;;;;;;;;;41.50;47.00;;;;;;4985328;28;19913;-69
2023/05/23 10:24:48;;;;;;;;;;;41.00;47.90;;;;;;4988139;28;19917;-68
2023/05/23 10:27:14;;;;;;;;;;;41.30;47.60;;;;;;4985893;28;19969;-69
2023/05/23 10:29:40;;;;;;;;;;;41.50;47.40;;;;;;4984265;28;20050;-69
2023/05/23 10:32:06;;;;;;;;;;;42.10;46.90;;;;;;4989988;28;19925;-68
2023/05/23 10:34:37;;;;;;;;;;;41.90;46.30;;;;;;4982979;28;19910;-68
2023/05/23 10:37:06;;;;;;;;;;;42.40;46.50;;;;;;4979479;28;19940;-69
2023/05/23 10:39:43;;;;;;;;;;;42.30;45.90;;;;;;4982854;28;19914;-69
2023/05/23 10:42:34;;;;;;;;;;;42.30;46.20;;;;;;4989327;28;19910;-68
2023/05/23 10:45:19;;;;;;;;;;;42.50;46.00;;;;;;4984347;28;19910;-68
2023/05/23 10:47:48;;;;;;;;;;;41.90;45.90;;;;;;4993892;28;19993;-68
2023/05/23 10:50:15;;;;;;;;;;;41.20;46.90;;;;;;4990394;28;19929;-68
2023/05/23 10:52:41;;;;;;;;;;;41.40;47.30;;;;;;4992623;28;19913;-68
2023/05/23 10:55:16;;;;;;;;;;;40.30;47.50;;;;;;4984887;28;19909;-68
2023/05/23 10:57:42;;;;;;;;;;;38.50;48.60;;;;;;5008318;28;19910;-66
2023/05/23 11:00:12;;;;;;;;;;;36.80;50.60;;;;;;4995465;28;19948;-66
2023/05/23 11:02:46;;;;;;;;;;;35.50;51.60;;;;;;4997605;28;19940;-68
2023/05/23 11:05:21;;;;;;;;;;;34.50;53.60;;;;;;4997441;28;19951;-68
2023/05/23 11:08:06;;;;;;;;;;;33.70;54.70;;;;;;5000646;28;19909;-68
2023/05/23 11:10:32;;;;;;;;;;;33.10;55.20;;;;;;4976299;28;19930;-68
2023/05/23 11:13:06;;;;;;;;;;;32.70;56.30;;;;;;4986136;28;19909;-68
2023/05/23 11:15:41;;;;;;;;;;;32.50;56.80;;;;;;4984885;28;19914;-68
2023/05/23 11:18:07;;;;;;;;;;;32.40;57.20;;;;;;4978750;28;20577;-68
2023/05/23 11:20:33;;;;;;;;;;;32.20;57.60;;;;;;4986939;28;19914;-68
2023/05/23 11:23:01;;;;;;;;;;;32.00;58.00;;;;;;4985312;28;19909;-68
2023/05/23 11:25:59;;;;;;;;;;;32.00;58.50;;;;;;4985186;28;20000;-68
2023/05/23 11:28:25;;;;;;;;;;;31.60;56.60;;;;;;4935707;28;19906;-71
2023/05/23 11:30:51;;;;;;;;;;;31.10;57.10;;;;;;4983535;28;19913;-72
2023/05/23 11:33:17;;;;;;;;;;;30.80;57.40;;;;;;4981661;28;20360;-73
2023/05/23 11:35:48;;;;;;;;;;;30.50;57.20;;;;;;4988764;28;19910;-72
2023/05/23 11:38:15;;;;;;;;;;;30.20;57.60;;;;;;4985567;28;19909;-72
2023/05/23 11:40:43;;;;;;;;;;;29.80;58.50;;;;;;4988811;28;19920;-72
2023/05/23 11:43:10;;;;;;;;;;;29.60;59.20;;;;;;4981574;28;20627;-72
2023/05/23 11:45:37;;;;;;;;;;;29.40;59.20;;;;;;4983197;28;19909;-72
2023/05/23 11:48:08;;;;;;;;;;;29.30;59.70;;;;;;4986961;28;19909;-72
2023/05/23 11:50:42;;;;;;;;;;;29.40;60.90;;;;;;4984933;28;19914;-73
2023/05/23 11:53:07;;;;;;;;;;;29.50;60.40;;;;;;4982678;28;20031;-72
2023/05/23 11:55:33;;;;;;;;;;;29.50;60.10;;;;;;4987156;28;20486;-73
2023/05/23 11:57:59;;;;;;;;;;;29.50;61.00;;;;;;4982661;28;19958;-72
2023/05/23 12:00:25;;;;;;;;;;;29.50;60.50;;;;;;4992582;28;19920;-72
2023/05/23 12:02:50;;;;;;;;;;;29.50;60.80;;;;;;4992342;28;19952;-72
2023/05/23 12:05:16;;;;;;;;;;;29.50;60.80;;;;;;4977383;28;19909;-72
2023/05/23 12:07:46;;;;;;;;;;;29.30;60.80;;;;;;4988014;28;20009;-73
2023/05/23 12:10:15;;;;;;;;;;;29.20;61.50;;;;;;4986991;28;19929;-72
2023/05/23 12:12:41;;;;;;;;;;;29.20;62.00;;;;;;4989063;28;19944;-72
2023/05/23 12:15:12;;;;;;;;;;;29.20;62.20;;;;;;4984849;28;19917;-72
2023/05/23 12:17:38;;;;;;;;;;;29.30;61.60;;;;;;5001601;28;19913;-72
2023/05/23 12:20:04;;;;;;;;;;;29.60;62.10;;;;;;4984989;28;20491;-72
2023/05/23 12:22:30;;;;;;;;;;;29.70;60.60;;;;;;4981171;28;19910;-72
2023/05/23 12:24:56;;;;;;;;;;;29.60;60.70;;;;;;4985624;28;19931;-72
2023/05/23 12:27:29;;;;;;;;;;;29.50;60.60;;;;;;4989249;28;20008;-72
2023/05/23 12:30:06;;;;;;;;;;;29.40;61.10;;;;;;5001350;28;20002;-72
2023/05/23 12:32:32;;;;;;;;;;;29.30;61.70;;;;;;4988635;28;19976;-72
2023/05/23 12:34:58;;;;;;;;;;;29.30;60.60;;;;;;4989087;28;19964;-73
2023/05/23 12:37:24;;;;;;;;;;;29.20;61.80;;;;;;4986417;28;20267;-73
2023/05/23 12:39:50;;;;;;;;;;;29.10;62.30;;;;;;4990106;28;19946;-73
2023/05/23 12:42:15;;;;;;;;;;;28.80;62.40;;;;;;4989107;28;19910;-72
2023/05/23 12:44:45;;;;;;;;;;;28.70;63.10;;;;;;4990629;28;19909;-72
2023/05/23 12:47:11;;;;;;;;;;;28.70;63.20;;;;;;4985341;28;19914;-72
2023/05/23 12:49:37;;;;;;;;;;;28.60;63.30;;;;;;4982515;28;20815;-73
2023/05/23 12:52:03;;;;;;;;;;;28.70;63.50;;;;;;4985736;28;19909;-73
2023/05/23 12:54:28;;;;;;;;;;;28.70;63.20;;;;;;5002046;28;19910;-72
2023/05/23 12:56:56;;;;;;;;;;;28.60;63.30;;;;;;4986064;28;19914;-75
2023/05/23 12:59:22;;;;;;;;;;;28.70;64.30;;;;;;4980556;28;20008;-76
2023/05/23 13:01:54;;;;;;;;;;;28.60;64.40;;;;;;4983080;28;19906;-76
2023/05/23 13:04:22;;;;;;;;;;;28.70;64.90;;;;;;4984803;28;19913;-76
2023/05/23 13:06:47;;;;;;;;;;;28.70;64.80;;;;;;4988976;28;19905;-76
2023/05/23 13:09:14;;;;;;;;;;;28.80;65.10;;;;;;4989063;28;19909;-76
2023/05/23 13:11:40;;;;;;;;;;;28.90;64.80;;;;;;4983745;28;19909;-75
2023/05/23 13:14:06;;;;;;;;;;;28.90;64.70;;;;;;4987365;28;19944;-76
2023/05/23 13:16:40;;;;;;;;;;;28.90;64.40;;;;;;4986832;28;19972;-76
2023/05/23 13:19:12;;;;;;;;;;;28.90;64.10;;;;;;5001572;28;19913;-76
2023/05/23 13:21:39;;;;;;;;;;;28.90;64.70;;;;;;4980313;28;19909;-76
2023/05/23 13:24:14;;;;;;;;;;;28.80;65.00;;;;;;4990311;28;19905;-76
2023/05/23 13:26:47;;;;;;;;;;;28.80;64.70;;;;;;4985085;28;19914;-75
2023/05/23 13:29:18;;;;;;;;;;;28.80;64.60;;;;;;4985233;28;20422;-76
2023/05/23 13:31:44;;;;;;;;;;;28.60;64.90;;;;;;4987334;28;20631;-76
2023/05/23 13:34:16;;;;;;;;;;;28.30;65.60;;;;;;5001154;28;19921;-76
2023/05/23 13:36:52;;;;;;;;;;;28.20;66.60;;;;;;4984850;28;19913;-76
2023/05/23 13:39:21;;;;;;;;;;;28.10;67.70;;;;;;4989248;28;20352;-76
2023/05/23 13:41:47;;;;;;;;;;;28.10;68.40;;;;;;4978210;28;20382;-75
2023/05/23 13:44:30;;;;;;;;;;;27.90;67.80;;;;;;4985966;28;19957;-75
2023/05/23 13:47:08;;;;;;;;;;;27.70;68.60;;;;;;4983173;28;19944;-76
2023/05/23 13:49:35;;;;;;;;;;;27.60;69.00;;;;;;5001962;28;19906;-76
2023/05/23 13:52:00;;;;;;;;;;;27.50;69.90;;;;;;4981213;28;19914;-76
2023/05/23 13:54:28;;;;;;;;;;;27.30;71.00;;;;;;4986811;28;20240;-76
2023/05/23 13:56:59;;;;;;;;;;;27.10;71.30;;;;;;4986929;28;19944;-76
2023/05/23 13:59:25;;;;;;;;;;;26.80;72.40;;;;;;4990274;28;19909;-75
2023/05/23 14:01:52;;;;;;;;;;;26.50;73.10;;;;;;5004344;28;20031;-75
2023/05/23 14:04:22;;;;;;;;;;;26.20;74.60;;;;;;5002799;28;19941;-75
2023/05/23 14:06:52;;;;;;;;;;;25.80;76.80;;;;;;4982705;28;19912;-77
2023/05/23 14:09:23;;;;;;;;;;;25.50;79.30;;;;;;4983183;28;19929;-77
2023/05/23 14:11:50;;;;;;;;;;;25.10;82.40;;;;;;4985754;28;19906;-75
2023/05/23 14:14:25;;;;;;;;;;;24.60;90.10;;;;;;4982076;28;19906;-78
2023/05/23 14:16:54;;;;;;;;;;;24.10;93.60;;;;;;5002971;28;19993;-76
2023/05/23 14:19:28;;;;;;;;;;;23.70;98.00;;;;;;5001457;28;19958;-76
2023/05/23 14:21:54;;;;;;;;;;;23.30;99.90;;;;;;5002066;28;20053;-71
2023/05/23 14:24:21;;;;;;;;;;;22.90;99.90;;;;;;4981300;28;19913;-71
2023/05/23 14:26:46;;;;;;;;;;;22.70;99.90;;;;;;4984787;28;19955;-71
2023/05/23 14:29:12;;;;;;;;;;;22.40;99.90;;;;;;4979148;28;19909;-70
2023/05/23 14:31:37;;;;;;;;;;;22.30;99.90;;;;;;4983489;28;20418;-71
2023/05/23 14:34:03;;;;;;;;;;;22.20;99.90;;;;;;4986031;28;20378;-70
2023/05/23 14:36:29;;;;;;;;;;;22.20;99.90;;;;;;4986809;28;19911;-70
2023/05/23 14:38:54;;;;;;;;;;;22.00;99.90;;;;;;4984456;28;20355;-71
2023/05/23 14:41:21;;;;;;;;;;;22.00;99.90;;;;;;4986448;28;19913;-70
2023/05/23 14:43:47;;;;;;;;;;;21.90;99.90;;;;;;4981374;28;19963;-71
2023/05/23 14:46:14;;;;;;;;;;;21.80;99.90;;;;;;4999094;28;19910;-70
2023/05/23 14:48:40;;;;;;;;;;;21.80;99.90;;;;;;4979674;28;19913;-70
2023/05/23 14:51:06;;;;;;;;;;;21.90;99.90;;;;;;4982942;28;19910;-70
2023/05/23 14:53:31;;;;;;;;;;;21.90;99.90;;;;;;4978810;28;19913;-71
2023/05/23 14:55:57;;;;;;;;;;;22.00;99.90;;;;;;4983524;28;19906;-71
2023/05/23 14:58:24;;;;;;;;;;;22.10;99.90;;;;;;4984162;28;19917;-72
2023/05/23 15:00:51;;;;;;;;;;;22.10;99.90;;;;;;4987581;28;19906;-72
2023/05/23 15:03:17;;;;;;;;;;;22.20;99.90;;;;;;4989733;28;19906;-72
2023/05/23 15:05:42;;;;;;;;;;;22.30;99.90;;;;;;4984952;28;19917;-71
2023/05/23 15:08:09;;;;;;;;;;;22.30;99.90;;;;;;4982430;28;19909;-72
2023/05/23 15:10:35;;;;;;;;;;;22.30;99.90;;;;;;4993257;28;20362;-73
2023/05/23 15:13:02;;;;;;;;;;;22.20;99.90;;;;;;5001004;28;19910;-73
2023/05/23 15:15:36;;;;;;;;;;;22.20;99.90;;;;;;4999020;28;19921;-73
2023/05/23 15:18:05;;;;;;;;;;;22.00;99.90;;;;;;4997878;28;20046;-71
2023/05/23 15:20:35;;;;;;;;;;;21.80;99.90;;;;;;4973839;28;20366;-73
2023/05/23 15:23:00;;;;;;;;;;;21.70;99.90;;;;;;4982692;28;19909;-74
2023/05/23 15:25:27;;;;;;;;;;;21.50;99.90;;;;;;4978782;28;20004;-73
2023/05/23 15:27:53;;;;;;;;;;;21.30;99.90;;;;;;5001581;28;19936;-72
2023/05/23 15:30:19;;;;;;;;;;;21.20;99.90;;;;;;4985334;28;20271;-72
2023/05/23 15:32:44;;;;;;;;;;;21.10;99.90;;;;;;4984640;28;19965;-73
2023/05/23 15:35:10;;;;;;;;;;;20.80;99.90;;;;;;5002508;28;19914;-71
2023/05/23 15:37:35;;;;;;;;;;;20.80;99.90;;;;;;5006355;28;19913;-72
2023/05/23 15:40:01;;;;;;;;;;;20.70;99.90;;;;;;4997031;28;19959;-72
2023/05/23 15:42:27;;;;;;;;;;;20.60;99.90;;;;;;4979537;28;20451;-72
2023/05/23 15:44:52;;;;;;;;;;;20.50;99.90;;;;;;4991530;28;19920;-72
2023/05/23 15:47:19;;;;;;;;;;;20.40;99.90;;;;;;4985430;28;19910;-72
2023/05/23 15:49:45;;;;;;;;;;;20.30;99.90;;;;;;4981089;28;20269;-71